Sparta, IL

11:18 PM CST on December 10, 2016 (GMT -0600)
LEDS BACKYARD | | Change Station

Elev 502 ft 38.09 °N, 89.69 °W | Updated 18 seconds ago

Overcast
Overcast
36.1 °F
Feels Like 30 °F
N
7.0
Wind Variable Wind from South

Today
High -- | Low -- °F
--% Chance of Precip.
Yesterday
High -- | Low -- °F
Precip. -- in
Pressure 30.26 in
Visibility 10.0 miles
Clouds Overcast 6000 ft
Windchill 30 °F
Dew Point 21 °F
Humidity 55%
Rainfall 0.00 in
Snow Depth Not available.
7:04 AM 4:39 PM
Waxing Gibbous, 89% visible
METAR KSAR 110455Z AUTO 16010KT 10SM OVC060 02/M07 A3026 RMK AO2 T00181075
Pressure 30.26 in
Visibility 10.0 miles
Clouds Overcast 6000 ft
Windchill 30 °F
Dew Point 21 °F
Humidity 55%
Rainfall 0.00 in
Snow Depth Not available.
7:04 AM 4:39 PM
Waxing Gibbous, 89% visible
METAR KSAR 110455Z AUTO 16010KT 10SM OVC060 02/M07 A3026 RMK AO2 T00181075

10-Day Weather Forecast

Almanac

Astronomy

Dec. 10, 2016 Rise Set
Actual Time
Civil Twilight
Nautical Twilight
Astronomical Twilight
Moon
Length of Visible Light
Length of Day
Tomorrow will be .
, % of the Moon is Illuminated

Today's Extremes

State Highs State Lows

Community

WunderPhotos

Upload Photos

1,956,705 photos uploaded!

WunderBlog® & News

Nearby

Air Quality

  Air Quality AQ Index Pollutant
Not available.

Snow Depth

Station Depth Elevation

Earthquake Activity

City Distance Mag. Time & Date
Minimum magnitude displayed is 2.5.

Coastal Water Temperatures

Place Temperature

Stations

Nearby Weather Stations

Station Location Temp. Windchill Dew Point Humidity Wind Precip. Elev Updated Type
                   

Watches & Warnings

There are currently no watches in effect.